This is the latest recevied weather packets stored in our database for station/object KF4WSW-13. If no packets are shown the sender has not sent any weather packets the latest 10 day(s).
| Time | Temp. | Humidity | Pressure | Rain* | Wind** | Luminosity | Snow |
|---|---|---|---|---|---|---|---|
| 1777224255 | 26.11° C | 75% | 1010.7 hPa | 0 mm | - | 789 W/m² | - |
| 1777223952 | 26.67° C | 71% | 1010.7 hPa | 0 mm | - | 781 W/m² | - |
| 1777223648 | 26.67° C | 72% | 1011.1 hPa | 0 mm | - | 788 W/m² | - |
| 1777223344 | 26.11° C | 71% | 1010.8 hPa | 0 mm | - | 788 W/m² | - |
| 1777223042 | 25° C | 75% | 1010.8 hPa | 0 mm | - | 786 W/m² | - |
| 1777222739 | 25.56° C | 75% | 1010.8 hPa | 0 mm | - | 780 W/m² | - |
| 1777222436 | 25.56° C | 74% | 1011 hPa | 0 mm | - | 782 W/m² | - |
| 1777222134 | 26.67° C | 69% | 1011.2 hPa | 0 mm | - | 787 W/m² | - |
| 1777221830 | 26.11° C | 68% | 1011 hPa | 0 mm | - | 783 W/m² | - |
| 1777221526 | 26.11° C | 71% | 1011 hPa | 0 mm | - | 780 W/m² | - |
| 1777221224 | 25.56° C | 73% | 1011 hPa | 0 mm | - | 776 W/m² | - |
| 1777220920 | 25.56° C | 74% | 1011.3 hPa | 0 mm | - | 769 W/m² | - |
| 1777220616 | 26.11° C | 75% | 1011.1 hPa | 0 mm | - | 766 W/m² | - |
| 1777220313 | 25.56° C | 74% | 1011.5 hPa | 0 mm | - | 760 W/m² | - |
| 1777220007 | 25.56° C | 74% | 1011.3 hPa | 0 mm | - | 753 W/m² | - |
| 1777219705 | 26.11° C | 73% | 1011.2 hPa | 0 mm | - | 752 W/m² | - |
| 1777219402 | 26.67° C | 71% | 1011.4 hPa | 0 mm | - | 744 W/m² | - |
| 1777219098 | 26.67° C | 71% | 1011.2 hPa | 0 mm | - | 736 W/m² | - |
| 1777218794 | 25.56° C | 73% | 1011.3 hPa | 0 mm | - | 726 W/m² | - |
| 1777218490 | 25.56° C | 73% | 1011.2 hPa | 0 mm | - | 721 W/m² | - |
* Rain latest hour (hover to see other rain measurements)
** Current wind speed in m/s (hover to see current wind gust speed)